sensor_id;sensor_type;location;lat;lon;timestamp;P1;durP1;ratioP1;P2;durP2;ratioP2
44130;SDS011;29792;48.726;9.248;2023-04-28T00:01:19;6.45;;;4.45;;
44130;SDS011;29792;48.726;9.248;2023-04-28T00:03:44;4.63;;;4.18;;
44130;SDS011;29792;48.726;9.248;2023-04-28T00:06:09;5.03;;;4.22;;
44130;SDS011;29792;48.726;9.248;2023-04-28T00:08:35;4.47;;;4.05;;
44130;SDS011;29792;48.726;9.248;2023-04-28T00:11:01;7.85;;;4.90;;
44130;SDS011;29792;48.726;9.248;2023-04-28T00:13:26;6.75;;;4.65;;
44130;SDS011;29792;48.726;9.248;2023-04-28T00:15:52;5.60;;;4.60;;
44130;SDS011;29792;48.726;9.248;2023-04-28T00:18:18;4.95;;;4.30;;
44130;SDS011;29792;48.726;9.248;2023-04-28T00:20:44;5.13;;;4.22;;
44130;SDS011;29792;48.726;9.248;2023-04-28T00:23:09;5.60;;;4.30;;
44130;SDS011;29792;48.726;9.248;2023-04-28T00:25:34;5.25;;;4.70;;
44130;SDS011;29792;48.726;9.248;2023-04-28T00:27:59;5.72;;;3.60;;
44130;SDS011;29792;48.726;9.248;2023-04-28T00:30:25;6.63;;;5.35;;
44130;SDS011;29792;48.726;9.248;2023-04-28T00:32:51;7.15;;;4.45;;
44130;SDS011;29792;48.726;9.248;2023-04-28T00:35:16;8.00;;;4.60;;
44130;SDS011;29792;48.726;9.248;2023-04-28T00:37:42;5.28;;;4.78;;
44130;SDS011;29792;48.726;9.248;2023-04-28T00:40:07;4.85;;;4.45;;
44130;SDS011;29792;48.726;9.248;2023-04-28T00:42:33;8.35;;;5.03;;
44130;SDS011;29792;48.726;9.248;2023-04-28T00:44:58;9.82;;;5.38;;
44130;SDS011;29792;48.726;9.248;2023-04-28T00:47:29;8.82;;;4.55;;
44130;SDS011;29792;48.726;9.248;2023-04-28T00:49:55;5.20;;;4.22;;
44130;SDS011;29792;48.726;9.248;2023-04-28T00:52:20;5.40;;;4.63;;
44130;SDS011;29792;48.726;9.248;2023-04-28T00:54:46;5.93;;;4.78;;
44130;SDS011;29792;48.726;9.248;2023-04-28T00:57:11;6.45;;;4.85;;
44130;SDS011;29792;48.726;9.248;2023-04-28T00:59:37;6.20;;;5.03;;
44130;SDS011;29792;48.726;9.248;2023-04-28T01:02:02;6.05;;;4.20;;
44130;SDS011;29792;48.726;9.248;2023-04-28T01:04:30;4.47;;;3.58;;
44130;SDS011;29792;48.726;9.248;2023-04-28T01:06:55;6.53;;;3.67;;
44130;SDS011;29792;48.726;9.248;2023-04-28T01:09:20;5.93;;;4.15;;
44130;SDS011;29792;48.726;9.248;2023-04-28T01:11:46;5.57;;;4.30;;
44130;SDS011;29792;48.726;9.248;2023-04-28T01:14:11;6.28;;;4.90;;
44130;SDS011;29792;48.726;9.248;2023-04-28T01:16:37;5.85;;;4.22;;
44130;SDS011;29792;48.726;9.248;2023-04-28T01:19:02;5.07;;;4.57;;
44130;SDS011;29792;48.726;9.248;2023-04-28T01:21:32;6.75;;;4.43;;
44130;SDS011;29792;48.726;9.248;2023-04-28T01:23:58;6.05;;;4.15;;
44130;SDS011;29792;48.726;9.248;2023-04-28T01:26:23;5.35;;;4.65;;
44130;SDS011;29792;48.726;9.248;2023-04-28T01:28:49;4.43;;;3.92;;
44130;SDS011;29792;48.726;9.248;2023-04-28T01:31:14;7.72;;;3.50;;
44130;SDS011;29792;48.726;9.248;2023-04-28T01:33:40;4.70;;;4.10;;
44130;SDS011;29792;48.726;9.248;2023-04-28T01:36:05;5.28;;;4.43;;
44130;SDS011;29792;48.726;9.248;2023-04-28T01:38:31;5.57;;;4.57;;
44130;SDS011;29792;48.726;9.248;2023-04-28T01:40:56;5.68;;;4.13;;
44130;SDS011;29792;48.726;9.248;2023-04-28T01:43:22;8.07;;;4.80;;
44130;SDS011;29792;48.726;9.248;2023-04-28T01:45:47;8.25;;;4.63;;
44130;SDS011;29792;48.726;9.248;2023-04-28T01:48:13;3.88;;;3.47;;
44130;SDS011;29792;48.726;9.248;2023-04-28T01:50:38;6.57;;;4.10;;
44130;SDS011;29792;48.726;9.248;2023-04-28T01:53:03;4.32;;;3.88;;
44130;SDS011;29792;48.726;9.248;2023-04-28T01:55:28;6.10;;;4.05;;
44130;SDS011;29792;48.726;9.248;2023-04-28T01:57:54;6.32;;;4.25;;
44130;SDS011;29792;48.726;9.248;2023-04-28T02:00:19;7.00;;;3.63;;
44130;SDS011;29792;48.726;9.248;2023-04-28T02:02:44;5.35;;;4.40;;
44130;SDS011;29792;48.726;9.248;2023-04-28T02:05:10;8.20;;;4.57;;
44130;SDS011;29792;48.726;9.248;2023-04-28T02:07:36;4.50;;;3.88;;
44130;SDS011;29792;48.726;9.248;2023-04-28T02:10:01;5.55;;;3.92;;
44130;SDS011;29792;48.726;9.248;2023-04-28T02:12:26;5.68;;;4.22;;
44130;SDS011;29792;48.726;9.248;2023-04-28T02:14:51;4.32;;;3.78;;
44130;SDS011;29792;48.726;9.248;2023-04-28T02:17:17;7.30;;;5.40;;
44130;SDS011;29792;48.726;9.248;2023-04-28T02:19:42;5.32;;;4.82;;
44130;SDS011;29792;48.726;9.248;2023-04-28T02:22:07;5.45;;;4.55;;
44130;SDS011;29792;48.726;9.248;2023-04-28T02:24:36;5.65;;;3.72;;
44130;SDS011;29792;48.726;9.248;2023-04-28T02:27:02;4.57;;;4.18;;
44130;SDS011;29792;48.726;9.248;2023-04-28T02:29:29;7.28;;;5.35;;
44130;SDS011;29792;48.726;9.248;2023-04-28T02:31:54;8.40;;;3.45;;
44130;SDS011;29792;48.726;9.248;2023-04-28T02:34:20;4.72;;;3.97;;
44130;SDS011;29792;48.726;9.248;2023-04-28T02:36:45;8.18;;;4.85;;
44130;SDS011;29792;48.726;9.248;2023-04-28T02:39:12;4.65;;;3.42;;
44130;SDS011;29792;48.726;9.248;2023-04-28T02:41:37;5.10;;;3.72;;
44130;SDS011;29792;48.726;9.248;2023-04-28T02:44:02;4.80;;;3.83;;
44130;SDS011;29792;48.726;9.248;2023-04-28T02:46:28;6.68;;;3.90;;
44130;SDS011;29792;48.726;9.248;2023-04-28T02:48:53;5.30;;;3.90;;
44130;SDS011;29792;48.726;9.248;2023-04-28T02:51:18;6.80;;;4.55;;
44130;SDS011;29792;48.726;9.248;2023-04-28T02:53:43;5.55;;;4.25;;
44130;SDS011;29792;48.726;9.248;2023-04-28T02:56:09;5.07;;;4.13;;
44130;SDS011;29792;48.726;9.248;2023-04-28T02:58:34;3.88;;;3.47;;
44130;SDS011;29792;48.726;9.248;2023-04-28T03:00:59;6.32;;;4.95;;
44130;SDS011;29792;48.726;9.248;2023-04-28T03:03:25;5.63;;;4.68;;
44130;SDS011;29792;48.726;9.248;2023-04-28T03:05:50;6.47;;;4.75;;
44130;SDS011;29792;48.726;9.248;2023-04-28T03:08:15;5.57;;;4.55;;
44130;SDS011;29792;48.726;9.248;2023-04-28T03:10:41;6.90;;;4.60;;
44130;SDS011;29792;48.726;9.248;2023-04-28T03:13:06;6.57;;;4.95;;
44130;SDS011;29792;48.726;9.248;2023-04-28T03:15:31;4.70;;;4.22;;
44130;SDS011;29792;48.726;9.248;2023-04-28T03:17:57;5.75;;;4.85;;
44130;SDS011;29792;48.726;9.248;2023-04-28T03:20:22;5.90;;;5.07;;
44130;SDS011;29792;48.726;9.248;2023-04-28T03:22:47;5.38;;;4.40;;
44130;SDS011;29792;48.726;9.248;2023-04-28T03:25:12;6.32;;;4.35;;
44130;SDS011;29792;48.726;9.248;2023-04-28T03:27:38;6.55;;;4.18;;
44130;SDS011;29792;48.726;9.248;2023-04-28T03:30:03;7.13;;;4.35;;
44130;SDS011;29792;48.726;9.248;2023-04-28T03:32:29;5.65;;;3.88;;
44130;SDS011;29792;48.726;9.248;2023-04-28T03:34:54;6.60;;;4.20;;
44130;SDS011;29792;48.726;9.248;2023-04-28T03:37:20;5.25;;;4.75;;
44130;SDS011;29792;48.726;9.248;2023-04-28T03:39:45;4.20;;;3.80;;
44130;SDS011;29792;48.726;9.248;2023-04-28T03:42:10;5.40;;;2.95;;
44130;SDS011;29792;48.726;9.248;2023-04-28T03:44:36;6.78;;;4.45;;
44130;SDS011;29792;48.726;9.248;2023-04-28T03:47:01;7.20;;;4.43;;
44130;SDS011;29792;48.726;9.248;2023-04-28T03:49:26;4.88;;;4.40;;
44130;SDS011;29792;48.726;9.248;2023-04-28T03:51:51;4.57;;;4.15;;
44130;SDS011;29792;48.726;9.248;2023-04-28T03:54:17;5.20;;;4.55;;
44130;SDS011;29792;48.726;9.248;2023-04-28T03:56:43;7.28;;;3.95;;
44130;SDS011;29792;48.726;9.248;2023-04-28T03:59:08;6.25;;;3.55;;
44130;SDS011;29792;48.726;9.248;2023-04-28T04:01:36;7.18;;;4.70;;
44130;SDS011;29792;48.726;9.248;2023-04-28T04:04:01;4.90;;;3.95;;
44130;SDS011;29792;48.726;9.248;2023-04-28T04:06:27;5.78;;;4.95;;
44130;SDS011;29792;48.726;9.248;2023-04-28T04:08:52;5.68;;;4.38;;
44130;SDS011;29792;48.726;9.248;2023-04-28T04:11:17;5.35;;;4.15;;
44130;SDS011;29792;48.726;9.248;2023-04-28T04:13:42;5.97;;;5.13;;
44130;SDS011;29792;48.726;9.248;2023-04-28T04:16:08;5.28;;;4.13;;
44130;SDS011;29792;48.726;9.248;2023-04-28T04:18:33;5.15;;;4.65;;
44130;SDS011;29792;48.726;9.248;2023-04-28T04:20:59;6.15;;;4.40;;
44130;SDS011;29792;48.726;9.248;2023-04-28T04:23:24;5.65;;;5.00;;
44130;SDS011;29792;48.726;9.248;2023-04-28T04:25:50;5.82;;;5.00;;
44130;SDS011;29792;48.726;9.248;2023-04-28T04:28:15;7.05;;;4.47;;
44130;SDS011;29792;48.726;9.248;2023-04-28T04:30:40;8.23;;;5.57;;
44130;SDS011;29792;48.726;9.248;2023-04-28T04:33:06;7.50;;;5.65;;
44130;SDS011;29792;48.726;9.248;2023-04-28T04:35:32;5.53;;;4.57;;
44130;SDS011;29792;48.726;9.248;2023-04-28T04:37:57;7.72;;;5.28;;
44130;SDS011;29792;48.726;9.248;2023-04-28T04:40:23;4.72;;;4.00;;
44130;SDS011;29792;48.726;9.248;2023-04-28T04:42:49;4.75;;;3.72;;
44130;SDS011;29792;48.726;9.248;2023-04-28T04:45:14;4.05;;;3.63;;
44130;SDS011;29792;48.726;9.248;2023-04-28T04:47:40;5.18;;;3.50;;
44130;SDS011;29792;48.726;9.248;2023-04-28T04:50:05;7.32;;;3.90;;
44130;SDS011;29792;48.726;9.248;2023-04-28T04:52:31;3.72;;;2.75;;
44130;SDS011;29792;48.726;9.248;2023-04-28T04:54:57;4.70;;;4.03;;
44130;SDS011;29792;48.726;9.248;2023-04-28T04:57:22;4.55;;;3.70;;
44130;SDS011;29792;48.726;9.248;2023-04-28T04:59:47;5.63;;;3.60;;
44130;SDS011;29792;48.726;9.248;2023-04-28T05:02:13;3.42;;;3.03;;
44130;SDS011;29792;48.726;9.248;2023-04-28T05:04:38;4.93;;;3.83;;
44130;SDS011;29792;48.726;9.248;2023-04-28T05:07:03;3.83;;;2.97;;
44130;SDS011;29792;48.726;9.248;2023-04-28T05:09:28;5.88;;;3.33;;
44130;SDS011;29792;48.726;9.248;2023-04-28T05:11:54;5.80;;;4.03;;
44130;SDS011;29792;48.726;9.248;2023-04-28T05:14:20;3.88;;;3.30;;
44130;SDS011;29792;48.726;9.248;2023-04-28T05:16:45;7.03;;;3.90;;
44130;SDS011;29792;48.726;9.248;2023-04-28T05:19:10;4.95;;;3.00;;
44130;SDS011;29792;48.726;9.248;2023-04-28T05:21:35;3.42;;;3.13;;
44130;SDS011;29792;48.726;9.248;2023-04-28T05:24:01;5.80;;;4.03;;
44130;SDS011;29792;48.726;9.248;2023-04-28T05:26:26;4.57;;;4.18;;
44130;SDS011;29792;48.726;9.248;2023-04-28T05:28:51;5.05;;;3.22;;
44130;SDS011;29792;48.726;9.248;2023-04-28T05:31:17;10.65;;;7.22;;
44130;SDS011;29792;48.726;9.248;2023-04-28T05:33:42;4.75;;;4.22;;
44130;SDS011;29792;48.726;9.248;2023-04-28T05:36:08;3.53;;;3.20;;
44130;SDS011;29792;48.726;9.248;2023-04-28T05:38:33;6.72;;;4.53;;
44130;SDS011;29792;48.726;9.248;2023-04-28T05:41:00;6.30;;;3.80;;
44130;SDS011;29792;48.726;9.248;2023-04-28T05:43:26;7.72;;;3.72;;
44130;SDS011;29792;48.726;9.248;2023-04-28T05:45:52;3.60;;;2.85;;
44130;SDS011;29792;48.726;9.248;2023-04-28T05:48:17;3.65;;;2.75;;
44130;SDS011;29792;48.726;9.248;2023-04-28T05:50:43;6.28;;;3.75;;
44130;SDS011;29792;48.726;9.248;2023-04-28T05:53:08;5.32;;;4.18;;
44130;SDS011;29792;48.726;9.248;2023-04-28T05:55:34;6.40;;;3.90;;
44130;SDS011;29792;48.726;9.248;2023-04-28T05:58:02;6.40;;;3.53;;
44130;SDS011;29792;48.726;9.248;2023-04-28T06:00:27;7.07;;;3.95;;
44130;SDS011;29792;48.726;9.248;2023-04-28T06:02:53;5.03;;;3.58;;
44130;SDS011;29792;48.726;9.248;2023-04-28T06:05:18;6.60;;;3.92;;
44130;SDS011;29792;48.726;9.248;2023-04-28T06:07:43;11.20;;;4.38;;
44130;SDS011;29792;48.726;9.248;2023-04-28T06:10:09;5.63;;;4.78;;
44130;SDS011;29792;48.726;9.248;2023-04-28T06:12:34;7.13;;;4.78;;
44130;SDS011;29792;48.726;9.248;2023-04-28T06:15:00;5.60;;;4.25;;
44130;SDS011;29792;48.726;9.248;2023-04-28T06:17:25;4.63;;;3.90;;
44130;SDS011;29792;48.726;9.248;2023-04-28T06:19:51;5.75;;;3.83;;
44130;SDS011;29792;48.726;9.248;2023-04-28T06:22:18;6.75;;;4.55;;
44130;SDS011;29792;48.726;9.248;2023-04-28T06:24:43;7.47;;;5.55;;
44130;SDS011;29792;48.726;9.248;2023-04-28T06:27:09;4.43;;;3.97;;
44130;SDS011;29792;48.726;9.248;2023-04-28T06:29:34;5.05;;;3.95;;
44130;SDS011;29792;48.726;9.248;2023-04-28T06:31:59;6.90;;;4.65;;
44130;SDS011;29792;48.726;9.248;2023-04-28T06:34:25;5.57;;;3.92;;
44130;SDS011;29792;48.726;9.248;2023-04-28T06:36:52;5.82;;;4.60;;
44130;SDS011;29792;48.726;9.248;2023-04-28T06:39:21;4.88;;;4.07;;
44130;SDS011;29792;48.726;9.248;2023-04-28T06:41:46;7.40;;;4.78;;
44130;SDS011;29792;48.726;9.248;2023-04-28T06:44:12;5.45;;;4.93;;
44130;SDS011;29792;48.726;9.248;2023-04-28T06:46:37;5.70;;;5.10;;
44130;SDS011;29792;48.726;9.248;2023-04-28T06:49:02;4.78;;;4.38;;
44130;SDS011;29792;48.726;9.248;2023-04-28T06:51:28;6.88;;;4.93;;
44130;SDS011;29792;48.726;9.248;2023-04-28T06:53:56;6.57;;;4.65;;
44130;SDS011;29792;48.726;9.248;2023-04-28T06:56:22;8.60;;;5.47;;
44130;SDS011;29792;48.726;9.248;2023-04-28T06:58:48;7.55;;;4.90;;
44130;SDS011;29792;48.726;9.248;2023-04-28T07:01:13;6.63;;;5.00;;
44130;SDS011;29792;48.726;9.248;2023-04-28T07:03:38;8.10;;;5.53;;
44130;SDS011;29792;48.726;9.248;2023-04-28T07:06:04;6.85;;;4.85;;
44130;SDS011;29792;48.726;9.248;2023-04-28T07:08:30;7.13;;;4.88;;
44130;SDS011;29792;48.726;9.248;2023-04-28T07:10:56;6.38;;;5.35;;
44130;SDS011;29792;48.726;9.248;2023-04-28T07:13:21;7.32;;;5.93;;
44130;SDS011;29792;48.726;9.248;2023-04-28T07:15:46;8.10;;;5.60;;
44130;SDS011;29792;48.726;9.248;2023-04-28T07:18:16;9.35;;;6.20;;
44130;SDS011;29792;48.726;9.248;2023-04-28T07:20:41;6.18;;;5.35;;
44130;SDS011;29792;48.726;9.248;2023-04-28T07:23:06;5.85;;;4.70;;
44130;SDS011;29792;48.726;9.248;2023-04-28T07:25:31;6.38;;;5.32;;
44130;SDS011;29792;48.726;9.248;2023-04-28T07:27:57;8.20;;;5.55;;
44130;SDS011;29792;48.726;9.248;2023-04-28T07:30:22;5.65;;;4.65;;
44130;SDS011;29792;48.726;9.248;2023-04-28T07:32:47;8.93;;;5.63;;
44130;SDS011;29792;48.726;9.248;2023-04-28T07:35:13;8.75;;;5.82;;
44130;SDS011;29792;48.726;9.248;2023-04-28T07:37:38;6.82;;;5.15;;
44130;SDS011;29792;48.726;9.248;2023-04-28T07:40:04;8.13;;;5.80;;
44130;SDS011;29792;48.726;9.248;2023-04-28T07:42:30;7.05;;;6.10;;
44130;SDS011;29792;48.726;9.248;2023-04-28T07:44:56;10.15;;;6.60;;
44130;SDS011;29792;48.726;9.248;2023-04-28T07:47:22;6.82;;;5.82;;
44130;SDS011;29792;48.726;9.248;2023-04-28T07:49:48;6.65;;;5.72;;
44130;SDS011;29792;48.726;9.248;2023-04-28T07:52:13;7.10;;;6.25;;
44130;SDS011;29792;48.726;9.248;2023-04-28T07:54:38;6.60;;;4.60;;
44130;SDS011;29792;48.726;9.248;2023-04-28T07:57:03;6.55;;;4.95;;
44130;SDS011;29792;48.726;9.248;2023-04-28T07:59:30;6.22;;;4.68;;
44130;SDS011;29792;48.726;9.248;2023-04-28T08:01:57;6.20;;;5.30;;
44130;SDS011;29792;48.726;9.248;2023-04-28T08:04:22;6.22;;;5.63;;
44130;SDS011;29792;48.726;9.248;2023-04-28T08:06:47;7.43;;;5.50;;
44130;SDS011;29792;48.726;9.248;2023-04-28T08:09:13;5.85;;;5.22;;
44130;SDS011;29792;48.726;9.248;2023-04-28T08:11:38;18.05;;;6.97;;
44130;SDS011;29792;48.726;9.248;2023-04-28T08:14:03;8.93;;;5.40;;
44130;SDS011;29792;48.726;9.248;2023-04-28T08:16:29;9.07;;;4.63;;
44130;SDS011;29792;48.726;9.248;2023-04-28T08:18:54;7.10;;;5.38;;
44130;SDS011;29792;48.726;9.248;2023-04-28T08:21:20;5.72;;;4.30;;
44130;SDS011;29792;48.726;9.248;2023-04-28T08:23:45;6.97;;;4.03;;
44130;SDS011;29792;48.726;9.248;2023-04-28T08:26:11;4.72;;;3.92;;
44130;SDS011;29792;48.726;9.248;2023-04-28T08:28:36;5.30;;;4.15;;
44130;SDS011;29792;48.726;9.248;2023-04-28T08:31:03;4.95;;;4.07;;
44130;SDS011;29792;48.726;9.248;2023-04-28T08:33:29;5.80;;;3.00;;
44130;SDS011;29792;48.726;9.248;2023-04-28T08:35:54;5.13;;;3.70;;
44130;SDS011;29792;48.726;9.248;2023-04-28T08:38:20;4.10;;;3.30;;
44130;SDS011;29792;48.726;9.248;2023-04-28T08:40:48;4.15;;;2.95;;
44130;SDS011;29792;48.726;9.248;2023-04-28T08:43:13;4.80;;;3.42;;
44130;SDS011;29792;48.726;9.248;2023-04-28T08:45:42;5.05;;;3.60;;
44130;SDS011;29792;48.726;9.248;2023-04-28T08:48:12;5.85;;;3.65;;
44130;SDS011;29792;48.726;9.248;2023-04-28T08:50:42;4.55;;;3.17;;
44130;SDS011;29792;48.726;9.248;2023-04-28T08:53:08;6.25;;;3.70;;
44130;SDS011;29792;48.726;9.248;2023-04-28T08:55:36;4.03;;;3.45;;
44130;SDS011;29792;48.726;9.248;2023-04-28T08:58:02;6.25;;;4.03;;
44130;SDS011;29792;48.726;9.248;2023-04-28T09:00:28;6.80;;;3.50;;
44130;SDS011;29792;48.726;9.248;2023-04-28T09:02:54;7.05;;;4.18;;
44130;SDS011;29792;48.726;9.248;2023-04-28T09:05:19;4.32;;;3.72;;
44130;SDS011;29792;48.726;9.248;2023-04-28T09:07:45;4.90;;;3.85;;
44130;SDS011;29792;48.726;9.248;2023-04-28T09:10:15;4.45;;;3.65;;
44130;SDS011;29792;48.726;9.248;2023-04-28T09:12:42;3.97;;;3.60;;
44130;SDS011;29792;48.726;9.248;2023-04-28T09:15:07;5.30;;;3.85;;
44130;SDS011;29792;48.726;9.248;2023-04-28T09:17:46;4.53;;;4.05;;
44130;SDS011;29792;48.726;9.248;2023-04-28T09:20:20;5.47;;;3.60;;
44130;SDS011;29792;48.726;9.248;2023-04-28T09:22:53;5.68;;;3.65;;
44130;SDS011;29792;48.726;9.248;2023-04-28T09:25:20;3.90;;;3.25;;
44130;SDS011;29792;48.726;9.248;2023-04-28T09:27:47;6.68;;;4.30;;
44130;SDS011;29792;48.726;9.248;2023-04-28T09:30:13;15.02;;;11.40;;
44130;SDS011;29792;48.726;9.248;2023-04-28T09:32:39;5.15;;;3.88;;
44130;SDS011;29792;48.726;9.248;2023-04-28T09:35:04;4.65;;;3.83;;
44130;SDS011;29792;48.726;9.248;2023-04-28T09:37:31;3.53;;;3.22;;
44130;SDS011;29792;48.726;9.248;2023-04-28T09:45:04;3.13;;;2.83;;
44130;SDS011;29792;48.726;9.248;2023-04-28T09:47:31;2.08;;;1.88;;
44130;SDS011;29792;48.726;9.248;2023-04-28T09:49:59;4.43;;;3.53;;
44130;SDS011;29792;48.726;9.248;2023-04-28T09:52:30;2.28;;;2.00;;
44130;SDS011;29792;48.726;9.248;2023-04-28T09:54:57;4.93;;;3.00;;
44130;SDS011;29792;48.726;9.248;2023-04-28T09:57:25;2.83;;;2.08;;
44130;SDS011;29792;48.726;9.248;2023-04-28T09:59:56;2.90;;;2.22;;
44130;SDS011;29792;48.726;9.248;2023-04-28T10:02:22;2.70;;;2.47;;
44130;SDS011;29792;48.726;9.248;2023-04-28T10:04:49;2.53;;;2.13;;
44130;SDS011;29792;48.726;9.248;2023-04-28T10:07:16;1.88;;;1.52;;
44130;SDS011;29792;48.726;9.248;2023-04-28T10:09:43;2.10;;;1.75;;
44130;SDS011;29792;48.726;9.248;2023-04-28T10:12:15;2.53;;;1.23;;
44130;SDS011;29792;48.726;9.248;2023-04-28T10:14:42;3.35;;;1.95;;
44130;SDS011;29792;48.726;9.248;2023-04-28T10:17:08;1.83;;;1.65;;
44130;SDS011;29792;48.726;9.248;2023-04-28T10:19:40;2.00;;;1.70;;
44130;SDS011;29792;48.726;9.248;2023-04-28T10:27:36;3.40;;;1.38;;
44130;SDS011;29792;48.726;9.248;2023-04-28T10:30:16;1.55;;;0.90;;
44130;SDS011;29792;48.726;9.248;2023-04-28T10:32:44;1.85;;;1.10;;
44130;SDS011;29792;48.726;9.248;2023-04-28T10:35:55;2.28;;;1.20;;
44130;SDS011;29792;48.726;9.248;2023-04-28T10:38:07;1.38;;;0.90;;
44130;SDS011;29792;48.726;9.248;2023-04-28T10:42:59;1.05;;;0.82;;
44130;SDS011;29792;48.726;9.248;2023-04-28T10:48:18;2.35;;;0.70;;
44130;SDS011;29792;48.726;9.248;2023-04-28T10:56:22;0.52;;;0.47;;
44130;SDS011;29792;48.726;9.248;2023-04-28T10:58:53;0.60;;;0.30;;
44130;SDS011;29792;48.726;9.248;2023-04-28T11:01:29;1.52;;;0.38;;
44130;SDS011;29792;48.726;9.248;2023-04-28T11:03:56;0.35;;;0.30;;
44130;SDS011;29792;48.726;9.248;2023-04-28T11:16:47;0.85;;;0.60;;
44130;SDS011;29792;48.726;9.248;2023-04-28T11:19:24;0.38;;;0.32;;
44130;SDS011;29792;48.726;9.248;2023-04-28T11:21:52;0.38;;;0.20;;
44130;SDS011;29792;48.726;9.248;2023-04-28T11:24:20;0.30;;;0.20;;
44130;SDS011;29792;48.726;9.248;2023-04-28T11:26:46;0.40;;;0.20;;
44130;SDS011;29792;48.726;9.248;2023-04-28T11:29:11;0.43;;;0.32;;
44130;SDS011;29792;48.726;9.248;2023-04-28T11:31:38;0.60;;;0.55;;
44130;SDS011;29792;48.726;9.248;2023-04-28T11:34:05;1.40;;;0.20;;
44130;SDS011;29792;48.726;9.248;2023-04-28T11:36:35;0.45;;;0.20;;
44130;SDS011;29792;48.726;9.248;2023-04-28T11:39:02;0.60;;;0.20;;
44130;SDS011;29792;48.726;9.248;2023-04-28T11:41:29;0.32;;;0.10;;
44130;SDS011;29792;48.726;9.248;2023-04-28T11:43:56;2.05;;;0.65;;
44130;SDS011;29792;48.726;9.248;2023-04-28T11:46:22;0.38;;;0.10;;
44130;SDS011;29792;48.726;9.248;2023-04-28T11:48:58;0.63;;;0.60;;
44130;SDS011;29792;48.726;9.248;2023-04-28T11:51:35;0.25;;;0.20;;
44130;SDS011;29792;48.726;9.248;2023-04-28T11:54:02;0.05;;;0.05;;
44130;SDS011;29792;48.726;9.248;2023-04-28T11:56:29;0.60;;;0.17;;
44130;SDS011;29792;48.726;9.248;2023-04-28T11:59:02;0.65;;;0.20;;
44130;SDS011;29792;48.726;9.248;2023-04-28T12:01:29;0.52;;;0.30;;
44130;SDS011;29792;48.726;9.248;2023-04-28T12:03:56;2.38;;;1.15;;
44130;SDS011;29792;48.726;9.248;2023-04-28T12:06:21;0.60;;;0.30;;
44130;SDS011;29792;48.726;9.248;2023-04-28T12:08:47;0.65;;;0.30;;
44130;SDS011;29792;48.726;9.248;2023-04-28T12:11:13;0.45;;;0.10;;
44130;SDS011;29792;48.726;9.248;2023-04-28T12:13:39;0.20;;;0.20;;
44130;SDS011;29792;48.726;9.248;2023-04-28T12:16:05;0.20;;;0.20;;
44130;SDS011;29792;48.726;9.248;2023-04-28T12:18:31;1.50;;;0.13;;
44130;SDS011;29792;48.726;9.248;2023-04-28T12:20:57;1.27;;;0.45;;
44130;SDS011;29792;48.726;9.248;2023-04-28T12:23:32;0.50;;;0.20;;
44130;SDS011;29792;48.726;9.248;2023-04-28T12:25:59;0.20;;;0.15;;
44130;SDS011;29792;48.726;9.248;2023-04-28T12:28:35;0.30;;;0.30;;
44130;SDS011;29792;48.726;9.248;2023-04-28T12:31:02;0.25;;;0.20;;
44130;SDS011;29792;48.726;9.248;2023-04-28T12:33:28;1.02;;;0.20;;
44130;SDS011;29792;48.726;9.248;2023-04-28T12:35:55;0.40;;;0.40;;
44130;SDS011;29792;48.726;9.248;2023-04-28T12:38:21;3.67;;;0.47;;
44130;SDS011;29792;48.726;9.248;2023-04-28T12:40:47;0.60;;;0.20;;
44130;SDS011;29792;48.726;9.248;2023-04-28T12:43:12;0.32;;;0.22;;
44130;SDS011;29792;48.726;9.248;2023-04-28T12:45:37;0.32;;;0.30;;
44130;SDS011;29792;48.726;9.248;2023-04-28T12:48:03;0.30;;;0.17;;
44130;SDS011;29792;48.726;9.248;2023-04-28T12:50:28;1.13;;;0.20;;
44130;SDS011;29792;48.726;9.248;2023-04-28T12:52:56;0.25;;;0.15;;
44130;SDS011;29792;48.726;9.248;2023-04-28T12:55:22;0.15;;;0.10;;
44130;SDS011;29792;48.726;9.248;2023-04-28T12:57:47;0.95;;;0.40;;
44130;SDS011;29792;48.726;9.248;2023-04-28T13:00:13;0.60;;;0.20;;
44130;SDS011;29792;48.726;9.248;2023-04-28T13:02:40;1.95;;;0.40;;
44130;SDS011;29792;48.726;9.248;2023-04-28T13:05:06;0.70;;;0.30;;
44130;SDS011;29792;48.726;9.248;2023-04-28T13:07:32;0.68;;;0.20;;
44130;SDS011;29792;48.726;9.248;2023-04-28T13:09:57;0.95;;;0.20;;
44130;SDS011;29792;48.726;9.248;2023-04-28T13:12:23;0.30;;;0.30;;
44130;SDS011;29792;48.726;9.248;2023-04-28T13:14:48;1.27;;;0.17;;
44130;SDS011;29792;48.726;9.248;2023-04-28T13:17:14;0.73;;;0.38;;
44130;SDS011;29792;48.726;9.248;2023-04-28T13:19:39;1.23;;;0.73;;
44130;SDS011;29792;48.726;9.248;2023-04-28T13:22:04;1.23;;;1.00;;
44130;SDS011;29792;48.726;9.248;2023-04-28T13:24:30;2.63;;;1.48;;
44130;SDS011;29792;48.726;9.248;2023-04-28T13:27:00;2.10;;;1.30;;
44130;SDS011;29792;48.726;9.248;2023-04-28T13:29:28;3.28;;;1.70;;
44130;SDS011;29792;48.726;9.248;2023-04-28T13:31:54;1.42;;;1.20;;
44130;SDS011;29792;48.726;9.248;2023-04-28T13:34:19;0.80;;;0.80;;
44130;SDS011;29792;48.726;9.248;2023-04-28T13:36:44;0.60;;;0.60;;
44130;SDS011;29792;48.726;9.248;2023-04-28T13:39:11;0.77;;;0.38;;
44130;SDS011;29792;48.726;9.248;2023-04-28T13:41:40;0.40;;;0.38;;
44130;SDS011;29792;48.726;9.248;2023-04-28T13:44:06;0.20;;;0.20;;
44130;SDS011;29792;48.726;9.248;2023-04-28T13:46:32;1.73;;;0.20;;
44130;SDS011;29792;48.726;9.248;2023-04-28T13:48:57;0.20;;;0.20;;
44130;SDS011;29792;48.726;9.248;2023-04-28T13:51:22;0.35;;;0.25;;
44130;SDS011;29792;48.726;9.248;2023-04-28T13:53:48;0.30;;;0.20;;
44130;SDS011;29792;48.726;9.248;2023-04-28T13:56:13;0.68;;;0.10;;
44130;SDS011;29792;48.726;9.248;2023-04-28T13:58:38;0.25;;;0.25;;
44130;SDS011;29792;48.726;9.248;2023-04-28T14:01:04;0.13;;;0.10;;
44130;SDS011;29792;48.726;9.248;2023-04-28T14:03:29;0.75;;;0.40;;
44130;SDS011;29792;48.726;9.248;2023-04-28T14:05:55;2.53;;;1.08;;
44130;SDS011;29792;48.726;9.248;2023-04-28T14:08:21;0.55;;;0.30;;
44130;SDS011;29792;48.726;9.248;2023-04-28T14:10:48;0.30;;;0.20;;
44130;SDS011;29792;48.726;9.248;2023-04-28T14:13:14;0.45;;;0.10;;
44130;SDS011;29792;48.726;9.248;2023-04-28T14:15:40;0.30;;;0.20;;
44130;SDS011;29792;48.726;9.248;2023-04-28T14:18:06;0.30;;;0.28;;
44130;SDS011;29792;48.726;9.248;2023-04-28T14:20:33;0.20;;;0.20;;
44130;SDS011;29792;48.726;9.248;2023-04-28T14:22:58;0.20;;;0.20;;
44130;SDS011;29792;48.726;9.248;2023-04-28T14:25:24;1.85;;;0.30;;
44130;SDS011;29792;48.726;9.248;2023-04-28T14:27:50;0.88;;;0.38;;
44130;SDS011;29792;48.726;9.248;2023-04-28T14:30:16;0.30;;;0.10;;
44130;SDS011;29792;48.726;9.248;2023-04-28T14:32:42;0.40;;;0.17;;
44130;SDS011;29792;48.726;9.248;2023-04-28T14:35:07;0.30;;;0.10;;
44130;SDS011;29792;48.726;9.248;2023-04-28T14:37:33;0.32;;;0.20;;
44130;SDS011;29792;48.726;9.248;2023-04-28T14:39:59;1.08;;;0.20;;
44130;SDS011;29792;48.726;9.248;2023-04-28T14:42:26;1.10;;;0.25;;
44130;SDS011;29792;48.726;9.248;2023-04-28T14:44:54;0.43;;;0.30;;
44130;SDS011;29792;48.726;9.248;2023-04-28T14:47:20;0.47;;;0.20;;
44130;SDS011;29792;48.726;9.248;2023-04-28T14:49:46;0.20;;;0.15;;
44130;SDS011;29792;48.726;9.248;2023-04-28T14:52:12;0.10;;;0.10;;
44130;SDS011;29792;48.726;9.248;2023-04-28T14:54:37;0.28;;;0.20;;
44130;SDS011;29792;48.726;9.248;2023-04-28T14:57:03;4.85;;;0.70;;
44130;SDS011;29792;48.726;9.248;2023-04-28T14:59:28;1.08;;;0.15;;
44130;SDS011;29792;48.726;9.248;2023-04-28T15:01:54;0.38;;;0.28;;
44130;SDS011;29792;48.726;9.248;2023-04-28T15:04:20;0.68;;;0.20;;
44130;SDS011;29792;48.726;9.248;2023-04-28T15:06:52;0.10;;;0.10;;
44130;SDS011;29792;48.726;9.248;2023-04-28T15:09:17;0.47;;;0.22;;
44130;SDS011;29792;48.726;9.248;2023-04-28T15:11:43;0.47;;;0.30;;
44130;SDS011;29792;48.726;9.248;2023-04-28T15:14:08;0.15;;;0.15;;